Time;durP1;ratioP1;P1;durP2;ratioP2;P2;SDS_P1;SDS_P2;PMS_P1;PMS_P2;Temp;Humidity;BMP_temperature;BMP_pressure;BME280_temperature;BME280_humidity;BME280_pressure;Samples;Min_cycle;Max_cycle;Signal;HPM_P1;HPM_P2
2022/10/26 00:01:08;;;;;;;2.78;2.50;;;13.20;99.90;;;;;;5060352;28;20209;-75
2022/10/26 00:03:40;;;;;;;6.45;2.70;;;13.20;99.90;;;;;;5059477;28;20932;-75
2022/10/26 00:06:10;;;;;;;3.40;2.35;;;13.30;99.90;;;;;;5056220;28;20198;-76
2022/10/26 00:08:38;;;;;;;5.70;3.17;;;13.30;99.90;;;;;;5067071;28;20233;-74
2022/10/26 00:11:06;;;;;;;4.95;3.03;;;13.40;99.90;;;;;;5078639;28;20210;-75
2022/10/26 00:13:35;;;;;;;3.20;2.20;;;13.40;99.90;;;;;;5064882;28;20210;-75
2022/10/26 00:16:08;;;;;;;6.75;2.78;;;13.30;99.90;;;;;;5059796;28;20226;-74
2022/10/26 00:18:37;;;;;;;3.20;2.58;;;13.20;99.90;;;;;;5060262;28;20227;-75
2022/10/26 00:21:05;;;;;;;3.97;2.70;;;13.10;99.90;;;;;;5068328;28;20201;-75
2022/10/26 00:23:32;;;;;;;6.65;3.08;;;13.00;99.90;;;;;;5069874;28;20198;-74
2022/10/26 00:26:00;;;;;;;4.25;2.63;;;13.00;99.90;;;;;;5067881;28;20663;-74
2022/10/26 00:28:28;;;;;;;4.32;2.75;;;13.00;99.90;;;;;;5069064;28;20589;-74
2022/10/26 00:31:00;;;;;;;5.10;2.88;;;13.00;99.90;;;;;;5064401;28;20193;-75
2022/10/26 00:33:28;;;;;;;5.35;3.33;;;13.00;99.90;;;;;;5065637;28;20252;-74
2022/10/26 00:36:00;;;;;;;4.53;3.28;;;13.00;99.90;;;;;;5068395;28;20205;-75
2022/10/26 00:38:27;;;;;;;8.27;3.10;;;12.90;99.90;;;;;;5069354;28;20731;-74
2022/10/26 00:40:55;;;;;;;4.32;2.90;;;12.80;99.90;;;;;;5061981;28;20225;-75
2022/10/26 00:43:37;;;;;;;5.63;3.00;;;12.70;99.90;;;;;;5068087;28;20212;-74
2022/10/26 00:46:08;;;;;;;4.85;3.40;;;12.70;99.90;;;;;;5062553;28;20190;-74
2022/10/26 00:48:39;;;;;;;4.28;2.92;;;12.80;99.90;;;;;;5062753;28;20229;-74
2022/10/26 00:51:13;;;;;;;4.35;3.30;;;12.80;99.90;;;;;;5059326;28;20206;-74
2022/10/26 00:53:40;;;;;;;5.22;3.13;;;12.80;99.90;;;;;;5067727;28;20220;-75
2022/10/26 00:56:08;;;;;;;5.32;3.22;;;12.70;99.90;;;;;;5065796;28;20231;-74
2022/10/26 00:58:37;;;;;;;5.68;3.08;;;12.80;99.90;;;;;;5058395;28;20217;-74
2022/10/26 01:01:04;;;;;;;6.25;2.97;;;12.80;99.90;;;;;;5060816;28;20201;-74
2022/10/26 01:03:34;;;;;;;3.83;3.03;;;12.80;99.90;;;;;;5061529;28;20216;-74
2022/10/26 01:06:04;;;;;;;8.95;3.20;;;12.90;99.90;;;;;;5068551;28;20199;-75
2022/10/26 01:08:33;;;;;;;4.72;2.88;;;13.00;99.90;;;;;;5063062;28;20229;-74
2022/10/26 01:11:01;;;;;;;5.28;2.90;;;13.10;99.90;;;;;;5069878;28;20198;-75
2022/10/26 01:13:32;;;;;;;4.93;2.88;;;13.10;99.90;;;;;;5062956;28;20209;-74
2022/10/26 01:16:12;;;;;;;3.72;3.03;;;13.00;99.90;;;;;;5063352;28;20214;-75
2022/10/26 01:18:46;;;;;;;4.72;2.65;;;13.00;99.90;;;;;;5058832;28;20221;-74
2022/10/26 01:21:37;;;;;;;4.53;3.13;;;13.20;99.90;;;;;;5064019;28;20212;-73
2022/10/26 01:24:37;;;;;;;3.72;2.67;;;13.10;99.90;;;;;;5072186;28;20197;-74
2022/10/26 01:27:18;;;;;;;4.45;2.67;;;13.20;99.90;;;;;;5054273;28;20226;-73
2022/10/26 01:30:11;;;;;;;6.05;2.70;;;13.20;99.90;;;;;;5060296;28;20198;-74
2022/10/26 01:32:44;;;;;;;4.43;2.40;;;13.20;99.90;;;;;;5062242;28;20213;-74
2022/10/26 01:35:16;;;;;;;5.30;2.53;;;13.30;99.90;;;;;;5067331;28;20650;-74
2022/10/26 01:37:48;;;;;;;3.63;2.53;;;13.30;99.90;;;;;;5067726;28;20236;-74
2022/10/26 01:40:23;;;;;;;5.15;2.92;;;13.20;99.90;;;;;;5064570;28;20591;-75
2022/10/26 01:42:56;;;;;;;6.20;2.40;;;13.10;99.90;;;;;;5065030;28;20197;-75
2022/10/26 01:45:26;;;;;;;3.85;2.58;;;13.10;99.90;;;;;;5057860;28;20206;-74
2022/10/26 01:47:54;;;;;;;3.35;2.28;;;13.20;99.90;;;;;;5072116;28;20210;-74
2022/10/26 01:50:23;;;;;;;5.60;2.78;;;13.20;99.90;;;;;;5063124;28;20205;-74
2022/10/26 01:52:50;;;;;;;4.03;2.95;;;13.20;99.90;;;;;;5062022;28;20198;-74
2022/10/26 01:55:43;;;;;;;4.38;2.53;;;13.20;99.90;;;;;;5062839;28;20668;-74
2022/10/26 01:58:21;;;;;;;5.22;2.80;;;13.20;99.90;;;;;;5062310;28;20707;-74
2022/10/26 02:00:59;;;;;;;7.13;2.80;;;13.20;99.90;;;;;;5058735;28;20205;-74
2022/10/26 02:03:38;;;;;;;6.68;2.90;;;13.20;99.90;;;;;;5057577;28;20206;-75
2022/10/26 02:06:16;;;;;;;3.47;2.45;;;13.30;99.90;;;;;;5067018;28;20551;-74
2022/10/26 02:09:03;;;;;;;4.55;3.05;;;13.20;99.90;;;;;;5068274;28;20217;-75
2022/10/26 02:11:39;;;;;;;4.43;2.88;;;13.10;99.90;;;;;;5063023;28;20198;-74
2022/10/26 02:14:18;;;;;;;4.18;2.58;;;13.10;99.90;;;;;;5058076;28;20190;-74
2022/10/26 02:16:54;;;;;;;3.05;2.67;;;13.00;99.90;;;;;;5054842;28;20229;-74
2022/10/26 02:19:33;;;;;;;6.97;2.80;;;13.10;99.90;;;;;;5063766;28;20197;-73
2022/10/26 02:22:07;;;;;;;5.60;2.42;;;13.10;99.90;;;;;;5058431;28;20194;-74
2022/10/26 02:24:36;;;;;;;5.32;2.65;;;13.10;99.90;;;;;;5066384;28;20208;-74
2022/10/26 02:27:07;;;;;;;5.47;3.00;;;13.10;99.90;;;;;;5060129;28;20218;-75
2022/10/26 02:29:36;;;;;;;4.35;2.80;;;13.20;99.90;;;;;;5069812;28;20260;-74
2022/10/26 02:32:07;;;;;;;4.22;2.35;;;13.20;99.90;;;;;;5063058;28;20209;-74
2022/10/26 02:34:38;;;;;;;3.63;2.67;;;13.10;99.90;;;;;;5063231;28;20649;-75
2022/10/26 02:37:07;;;;;;;4.43;2.47;;;13.30;99.90;;;;;;5060691;28;20216;-74
2022/10/26 02:39:38;;;;;;;4.40;2.72;;;13.30;99.90;;;;;;5057468;28;20221;-74
2022/10/26 02:42:08;;;;;;;3.95;2.53;;;13.20;99.90;;;;;;5056220;28;20194;-75
2022/10/26 02:44:42;;;;;;;5.32;2.67;;;13.30;99.90;;;;;;5056402;28;20248;-74
2022/10/26 02:47:12;;;;;;;4.43;2.67;;;13.30;99.90;;;;;;5061708;28;20244;-75
2022/10/26 02:49:40;;;;;;;3.80;2.70;;;13.40;99.90;;;;;;5060118;28;20488;-75
2022/10/26 02:52:14;;;;;;;3.58;2.60;;;13.50;99.90;;;;;;5060726;28;20194;-74
2022/10/26 02:54:50;;;;;;;9.05;2.90;;;13.60;99.90;;;;;;5054410;28;20193;-74
2022/10/26 02:57:20;;;;;;;4.32;3.08;;;13.60;99.90;;;;;;5064475;28;20216;-74
2022/10/26 02:59:49;;;;;;;9.55;3.30;;;13.50;99.90;;;;;;5063016;28;20201;-75
2022/10/26 03:02:19;;;;;;;4.80;2.75;;;13.50;99.90;;;;;;5064149;28;20209;-75
2022/10/26 03:04:49;;;;;;;3.42;2.53;;;13.50;99.90;;;;;;5069349;28;20202;-74
2022/10/26 03:07:21;;;;;;;6.65;2.78;;;13.60;99.90;;;;;;5055579;28;20229;-75
2022/10/26 03:09:48;;;;;;;5.63;2.45;;;13.60;99.90;;;;;;5062975;28;20206;-75
2022/10/26 03:12:15;;;;;;;3.47;2.42;;;13.60;99.90;;;;;;5053896;28;20187;-74
2022/10/26 03:14:43;;;;;;;4.38;2.70;;;13.50;99.90;;;;;;5064004;28;20212;-75
2022/10/26 03:17:10;;;;;;;6.65;3.35;;;13.60;99.90;;;;;;5097755;23;20227;-77
2022/10/26 03:19:39;;;;;;;5.55;2.92;;;13.60;99.90;;;;;;5085281;28;20201;-77
2022/10/26 03:22:07;;;;;;;6.18;3.17;;;13.50;99.90;;;;;;5089778;28;20204;-77
2022/10/26 03:24:34;;;;;;;5.50;2.97;;;13.50;99.90;;;;;;5086220;28;20201;-77
2022/10/26 03:27:02;;;;;;;5.43;3.30;;;13.40;99.90;;;;;;5099854;28;20208;-77
2022/10/26 03:29:29;;;;;;;8.70;3.33;;;13.40;99.90;;;;;;5115022;27;20188;-77
2022/10/26 03:31:56;;;;;;;7.78;3.63;;;13.30;99.90;;;;;;5113688;27;20192;-77
2022/10/26 03:34:24;;;;;;;4.25;2.85;;;13.30;99.90;;;;;;5114030;28;20211;-77
2022/10/26 03:36:53;;;;;;;4.00;3.40;;;13.30;99.90;;;;;;5107652;27;20240;-77
2022/10/26 03:39:20;;;;;;;3.80;3.03;;;13.30;99.90;;;;;;5111068;28;20192;-77
2022/10/26 03:41:47;;;;;;;3.85;2.90;;;13.40;99.90;;;;;;5111581;27;20684;-77
2022/10/26 03:44:15;;;;;;;4.63;3.22;;;13.40;99.90;;;;;;5104179;27;20557;-77
2022/10/26 03:46:42;;;;;;;4.47;2.78;;;13.40;99.90;;;;;;5112131;28;20212;-77
2022/10/26 03:49:10;;;;;;;5.78;3.20;;;13.40;99.90;;;;;;5118856;27;20192;-77
2022/10/26 03:51:37;;;;;;;4.65;2.60;;;13.50;99.90;;;;;;5111564;27;20200;-77
2022/10/26 03:54:06;;;;;;;5.90;3.13;;;13.50;99.90;;;;;;5112003;28;20200;-77
2022/10/26 03:56:34;;;;;;;5.57;3.05;;;13.50;99.90;;;;;;5114427;28;20411;-77
2022/10/26 03:59:01;;;;;;;5.70;3.30;;;13.50;99.90;;;;;;5114305;28;20204;-77
2022/10/26 04:01:28;;;;;;;7.38;3.00;;;13.40;99.90;;;;;;5108076;27;20196;-77
2022/10/26 04:03:56;;;;;;;7.53;3.30;;;13.50;99.90;;;;;;5107271;28;20212;-76
2022/10/26 04:06:23;;;;;;;4.95;3.25;;;13.50;99.90;;;;;;5111679;27;20229;-77
2022/10/26 04:08:56;;;;;;;4.40;3.35;;;13.50;99.90;;;;;;5110044;27;20196;-77
2022/10/26 04:11:25;;;;;;;5.80;3.17;;;13.40;99.90;;;;;;5107416;28;20215;-77
2022/10/26 04:13:53;;;;;;;4.80;3.05;;;13.30;99.90;;;;;;5112208;28;20200;-77
2022/10/26 04:16:20;;;;;;;4.93;3.22;;;13.40;99.90;;;;;;5105856;27;20223;-77
2022/10/26 04:18:48;;;;;;;7.05;3.28;;;13.20;99.90;;;;;;5103716;28;20223;-77
2022/10/26 04:21:15;;;;;;;4.55;3.15;;;13.30;99.90;;;;;;5103506;28;20207;-77
2022/10/26 04:23:42;;;;;;;4.70;3.13;;;13.10;99.90;;;;;;5110532;28;20189;-77
2022/10/26 04:26:10;;;;;;;5.03;2.97;;;13.30;99.90;;;;;;5109871;27;20219;-77
2022/10/26 04:28:38;;;;;;;5.15;2.85;;;13.30;99.90;;;;;;5108350;27;20211;-77
2022/10/26 04:31:06;;;;;;;4.65;2.83;;;13.20;99.90;;;;;;5111305;28;20200;-77
2022/10/26 04:33:35;;;;;;;3.80;2.85;;;13.20;99.90;;;;;;5101739;28;20204;-77
2022/10/26 04:36:03;;;;;;;5.35;2.22;;;13.20;99.90;;;;;;5111337;27;20569;-77
2022/10/26 04:38:30;;;;;;;4.32;2.53;;;13.30;99.90;;;;;;5117287;27;20212;-77
2022/10/26 04:40:58;;;;;;;3.85;2.38;;;13.50;99.90;;;;;;5118609;27;20200;-77
2022/10/26 04:43:25;;;;;;;2.15;1.85;;;13.50;99.90;;;;;;5108956;28;20201;-76
2022/10/26 04:45:57;;;;;;;3.38;2.15;;;13.70;99.90;;;;;;5107664;28;20196;-77
2022/10/26 04:48:25;;;;;;;2.53;1.80;;;13.70;99.90;;;;;;5108884;27;20204;-77
2022/10/26 04:50:52;;;;;;;3.55;1.77;;;13.80;99.90;;;;;;5108647;28;20196;-77
2022/10/26 04:53:19;;;;;;;4.38;1.98;;;14.00;99.90;;;;;;5112540;27;20204;-77
2022/10/26 04:55:47;;;;;;;3.70;2.03;;;14.00;99.90;;;;;;5110052;27;20200;-77
2022/10/26 04:58:14;;;;;;;3.17;1.65;;;14.00;99.90;;;;;;5103700;27;20208;-77
2022/10/26 05:00:43;;;;;;;3.28;1.52;;;14.10;99.90;;;;;;5107739;28;20204;-76
2022/10/26 05:03:12;;;;;;;2.55;1.58;;;14.20;99.90;;;;;;5112093;28;20192;-77
2022/10/26 05:05:40;;;;;;;4.80;2.17;;;14.30;99.90;;;;;;5112203;28;20677;-76
2022/10/26 05:08:07;;;;;;;3.13;1.60;;;14.40;99.90;;;;;;5108015;27;20195;-77
2022/10/26 05:10:35;;;;;;;3.20;1.42;;;14.40;99.90;;;;;;5109471;28;20685;-77
2022/10/26 05:13:03;;;;;;;4.18;1.30;;;14.50;99.90;;;;;;5110698;28;20196;-77
2022/10/26 05:15:30;;;;;;;6.20;1.42;;;14.60;99.90;;;;;;5105382;28;20205;-77
2022/10/26 05:18:00;;;;;;;1.88;1.40;;;14.70;99.90;;;;;;5111287;28;20220;-76
2022/10/26 05:20:30;;;;;;;3.15;1.48;;;14.70;99.90;;;;;;5109988;28;20574;-76
2022/10/26 05:22:59;;;;;;;1.33;1.02;;;14.80;99.90;;;;;;5108689;27;20200;-77
2022/10/26 05:25:28;;;;;;;3.35;1.35;;;14.90;99.90;;;;;;5110245;28;20220;-76
2022/10/26 05:28:13;;;;;;;3.42;1.25;;;15.00;99.90;;;;;;5103653;27;20220;-77
2022/10/26 05:30:41;;;;;;;1.55;1.15;;;15.00;99.90;;;;;;5105656;28;20180;-77
2022/10/26 05:33:13;;;;;;;3.05;1.20;;;15.00;99.90;;;;;;5111310;27;20208;-77
2022/10/26 05:35:42;;;;;;;3.03;1.20;;;15.00;99.90;;;;;;5096611;28;20192;-77
2022/10/26 05:38:10;;;;;;;4.70;1.25;;;15.00;99.90;;;;;;5110664;27;20220;-77
2022/10/26 05:40:47;;;;;;;2.47;1.08;;;15.00;99.90;;;;;;5109780;27;20607;-77
2022/10/26 05:43:18;;;;;;;3.28;1.30;;;15.00;99.90;;;;;;5113337;28;20203;-77
2022/10/26 05:45:46;;;;;;;1.83;0.90;;;15.10;99.90;;;;;;5112892;27;20197;-77
2022/10/26 05:48:13;;;;;;;6.15;1.48;;;15.10;99.90;;;;;;5107383;27;20188;-77
2022/10/26 05:50:46;;;;;;;1.52;0.77;;;15.10;99.90;;;;;;5107799;27;20207;-77
2022/10/26 05:53:14;;;;;;;1.63;1.00;;;15.10;99.90;;;;;;5109543;27;20196;-77
2022/10/26 05:55:48;;;;;;;2.22;1.30;;;15.10;99.90;;;;;;5125537;27;20193;-77
2022/10/26 05:59:03;;;;;;;6.38;1.10;;;15.10;99.90;;;;;;5107295;28;20212;-78
2022/10/26 06:02:03;;;;;;;1.80;0.90;;;15.10;99.90;;;;;;5100141;28;20193;-76
2022/10/26 06:05:02;;;;;;;2.00;0.90;;;15.10;99.90;;;;;;5092871;28;20197;-76
2022/10/26 06:07:32;;;;;;;3.45;1.00;;;15.10;99.90;;;;;;5060760;22;20219;-76
2022/10/26 06:10:00;;;;;;;2.17;1.25;;;15.10;99.90;;;;;;5047435;28;20195;-76
2022/10/26 06:12:34;;;;;;;1.40;0.93;;;15.10;99.90;;;;;;5030966;28;20206;-77
2022/10/26 06:15:07;;;;;;;2.15;1.15;;;15.10;99.90;;;;;;5047046;28;20702;-77
2022/10/26 06:17:52;;;;;;;7.00;1.38;;;15.10;99.90;;;;;;5033200;28;20222;-76
2022/10/26 06:20:46;;;;;;;6.18;1.58;;;15.40;99.90;;;;;;5033777;28;20203;-76
2022/10/26 06:23:32;;;;;;;3.38;1.70;;;15.70;99.90;;;;;;5025047;28;20206;-75
2022/10/26 06:26:06;;;;;;;3.05;1.40;;;15.80;99.90;;;;;;5042557;28;20195;-77
2022/10/26 06:28:39;;;;;;;2.58;1.10;;;15.90;99.90;;;;;;5027727;28;20202;-77
2022/10/26 06:31:07;;;;;;;3.33;1.20;;;16.00;99.90;;;;;;5026323;28;20199;-76
2022/10/26 06:33:45;;;;;;;3.00;1.02;;;16.10;99.90;;;;;;5028541;28;20653;-75
2022/10/26 06:36:22;;;;;;;3.63;1.13;;;15.60;99.90;;;;;;5029063;28;20238;-75
2022/10/26 06:38:56;;;;;;;1.63;1.10;;;15.30;99.90;;;;;;5031489;28;20242;-75
2022/10/26 06:41:24;;;;;;;1.50;0.95;;;15.20;99.90;;;;;;5030376;28;20202;-75
2022/10/26 06:43:52;;;;;;;2.25;1.10;;;15.10;99.90;;;;;;5012445;28;20203;-75
2022/10/26 06:46:30;;;;;;;3.60;1.40;;;15.10;99.90;;;;;;5028116;28;20219;-75
2022/10/26 06:49:05;;;;;;;2.35;1.02;;;15.10;99.90;;;;;;5016682;28;20199;-75
2022/10/26 06:51:41;;;;;;;4.65;1.25;;;15.10;99.90;;;;;;5025402;28;20202;-75
2022/10/26 06:54:18;;;;;;;5.13;1.23;;;15.10;99.90;;;;;;5032933;28;20176;-75
2022/10/26 06:56:46;;;;;;;6.28;1.48;;;15.10;99.90;;;;;;5027472;28;20577;-75
2022/10/26 06:59:36;;;;;;;2.03;1.17;;;15.10;99.90;;;;;;5027176;28;20218;-75
2022/10/26 07:02:03;;;;;;;2.60;1.52;;;15.10;99.90;;;;;;5012226;28;20556;-75
2022/10/26 07:04:31;;;;;;;2.05;1.38;;;15.10;99.90;;;;;;5012189;28;20653;-75
2022/10/26 07:06:58;;;;;;;2.03;1.27;;;15.20;99.90;;;;;;5028278;28;20226;-75
2022/10/26 07:09:27;;;;;;;1.40;1.10;;;15.20;99.90;;;;;;5038461;28;20203;-75
2022/10/26 07:11:54;;;;;;;3.55;1.17;;;15.20;99.90;;;;;;5017734;28;20207;-75
2022/10/26 07:14:22;;;;;;;3.47;1.00;;;15.20;99.90;;;;;;5012919;28;20183;-75
2022/10/26 07:16:49;;;;;;;3.03;1.30;;;15.20;99.90;;;;;;5011546;28;20220;-75
2022/10/26 07:19:17;;;;;;;6.80;1.38;;;15.20;99.90;;;;;;5016735;28;20223;-75
2022/10/26 07:21:44;;;;;;;3.25;0.90;;;15.20;99.90;;;;;;5028630;28;20206;-75
2022/10/26 07:24:12;;;;;;;2.33;1.10;;;15.30;99.90;;;;;;5027278;28;20199;-75
2022/10/26 07:26:40;;;;;;;2.13;1.27;;;15.30;99.90;;;;;;5011696;28;20230;-75
2022/10/26 07:29:08;;;;;;;2.53;1.20;;;15.30;99.90;;;;;;5039914;28;20198;-75
2022/10/26 07:31:35;;;;;;;2.70;0.93;;;15.30;99.90;;;;;;5031563;28;20691;-75
2022/10/26 07:34:03;;;;;;;1.90;1.15;;;15.40;99.90;;;;;;5027480;28;20206;-75
2022/10/26 07:36:30;;;;;;;1.63;1.05;;;15.40;99.90;;;;;;5029118;28;20226;-76
2022/10/26 07:39:11;;;;;;;2.30;0.90;;;15.60;99.90;;;;;;5039873;28;20219;-76
2022/10/26 07:41:48;;;;;;;2.17;1.17;;;15.50;99.90;;;;;;5033622;28;20203;-76
2022/10/26 07:44:19;;;;;;;4.70;1.17;;;15.50;99.90;;;;;;5028972;28;20203;-76
2022/10/26 07:46:54;;;;;;;3.33;1.52;;;15.60;99.90;;;;;;5029214;28;20226;-75
2022/10/26 07:49:21;;;;;;;2.22;1.00;;;15.80;99.90;;;;;;5027339;28;20237;-75
2022/10/26 07:51:49;;;;;;;1.80;0.93;;;15.70;99.90;;;;;;5029362;28;20213;-78
2022/10/26 07:54:16;;;;;;;3.05;0.95;;;15.70;99.90;;;;;;5043565;28;20199;-78
2022/10/26 07:56:48;;;;;;;1.38;0.70;;;15.70;99.90;;;;;;5027909;28;20230;-78
2022/10/26 07:59:24;;;;;;;6.20;1.00;;;15.80;99.90;;;;;;5042243;28;20226;-76
2022/10/26 08:01:52;;;;;;;3.63;1.10;;;15.80;99.90;;;;;;5027450;28;20198;-76
2022/10/26 08:04:20;;;;;;;2.35;0.90;;;15.90;99.90;;;;;;5041035;28;20200;-76
2022/10/26 08:06:50;;;;;;;3.42;0.80;;;15.90;99.90;;;;;;5022059;28;20235;-76
2022/10/26 08:09:19;;;;;;;2.08;1.27;;;15.90;99.90;;;;;;5022457;28;20207;-76
2022/10/26 08:11:52;;;;;;;3.17;0.95;;;15.90;99.90;;;;;;5027473;28;20684;-76
2022/10/26 08:14:19;;;;;;;4.20;1.25;;;15.90;99.90;;;;;;5021952;28;20208;-75
2022/10/26 08:16:49;;;;;;;5.70;1.10;;;16.00;99.90;;;;;;5031393;28;20241;-75
2022/10/26 08:19:16;;;;;;;3.38;0.98;;;16.10;99.90;;;;;;5044634;28;20226;-75
2022/10/26 08:21:52;;;;;;;4.53;1.30;;;16.10;99.90;;;;;;5027987;28;20701;-75
2022/10/26 08:24:19;;;;;;;1.67;0.88;;;16.20;99.90;;;;;;5031987;28;20214;-75
2022/10/26 08:26:47;;;;;;;2.47;1.10;;;16.30;99.90;;;;;;5033175;28;20214;-75
2022/10/26 08:29:18;;;;;;;2.83;0.82;;;16.40;99.90;;;;;;5023972;28;20576;-75
2022/10/26 08:31:46;;;;;;;2.13;1.20;;;16.40;99.90;;;;;;5048123;28;20218;-75
2022/10/26 08:34:14;;;;;;;1.73;1.17;;;16.50;99.90;;;;;;5021392;28;20680;-75
2022/10/26 08:36:42;;;;;;;4.32;1.42;;;16.60;99.90;;;;;;5033191;28;20607;-75
2022/10/26 08:39:09;;;;;;;3.72;1.10;;;16.60;99.90;;;;;;5025097;28;20349;-75
2022/10/26 08:41:40;;;;;;;1.75;1.00;;;16.70;99.90;;;;;;5024512;28;20198;-75
2022/10/26 08:44:22;;;;;;;2.00;1.05;;;16.80;99.90;;;;;;5031444;28;20199;-75
2022/10/26 08:46:53;;;;;;;2.55;1.20;;;16.90;99.90;;;;;;5032805;28;20226;-75
2022/10/26 08:49:24;;;;;;;1.95;1.10;;;16.90;99.90;;;;;;5023655;28;20199;-75
2022/10/26 08:51:55;;;;;;;3.90;1.48;;;16.90;99.90;;;;;;5026632;28;20206;-76
2022/10/26 08:54:32;;;;;;;7.07;1.30;;;17.00;99.90;;;;;;5031104;28;20187;-75
2022/10/26 08:57:03;;;;;;;6.30;1.05;;;17.00;99.90;;;;;;5022469;28;20222;-76
2022/10/26 08:59:38;;;;;;;2.13;1.20;;;17.10;99.90;;;;;;5036680;28;20220;-76
2022/10/26 09:02:12;;;;;;;2.80;1.08;;;17.10;99.90;;;;;;5022679;28;20206;-76
2022/10/26 09:04:55;;;;;;;2.47;1.33;;;17.10;99.90;;;;;;5032686;28;20206;-76
2022/10/26 09:07:36;;;;;;;2.33;1.10;;;17.20;99.90;;;;;;5030264;28;20234;-76
2022/10/26 09:10:19;;;;;;;3.22;1.38;;;17.20;99.90;;;;;;5026370;28;20214;-76
2022/10/26 09:13:03;;;;;;;2.55;1.30;;;17.40;99.90;;;;;;5026087;28;20199;-75
2022/10/26 09:15:47;;;;;;;2.92;1.50;;;17.50;99.90;;;;;;5016711;28;20684;-76
2022/10/26 09:18:31;;;;;;;6.38;1.17;;;17.50;99.90;;;;;;5028182;28;20202;-76
2022/10/26 09:21:09;;;;;;;2.63;1.55;;;17.50;99.90;;;;;;5027123;28;20222;-79
2022/10/26 09:23:53;;;;;;;3.47;1.55;;;17.60;99.90;;;;;;5029537;28;20199;-80
2022/10/26 09:26:32;;;;;;;3.92;1.50;;;17.70;99.90;;;;;;5047489;28;20229;-80
2022/10/26 09:29:04;;;;;;;2.47;1.40;;;17.80;99.90;;;;;;5034551;28;20195;-80
2022/10/26 09:31:40;;;;;;;2.70;1.27;;;17.80;99.90;;;;;;5035235;28;20195;-80
2022/10/26 09:34:20;;;;;;;3.47;1.30;;;17.80;99.90;;;;;;5051326;28;20194;-80
2022/10/26 09:36:54;;;;;;;1.52;1.30;;;17.80;99.90;;;;;;5031003;28;20241;-81
2022/10/26 09:39:28;;;;;;;4.38;1.17;;;17.90;99.90;;;;;;5047081;28;20198;-80
2022/10/26 09:41:59;;;;;;;2.90;1.40;;;18.10;99.90;;;;;;5027915;28;20211;-79
2022/10/26 09:44:32;;;;;;;2.35;1.33;;;18.20;99.90;;;;;;5031581;28;20210;-79
2022/10/26 09:47:09;;;;;;;2.13;1.30;;;18.30;99.90;;;;;;5029512;28;20708;-79
2022/10/26 09:49:44;;;;;;;2.33;1.45;;;18.40;99.90;;;;;;5047835;28;20198;-80
2022/10/26 09:52:11;;;;;;;4.00;1.48;;;18.50;99.90;;;;;;5028062;28;20202;-79
2022/10/26 09:54:39;;;;;;;2.40;1.38;;;18.60;99.90;;;;;;5033880;28;20191;-80
2022/10/26 09:57:08;;;;;;;4.03;1.45;;;18.60;99.90;;;;;;5032051;28;20688;-80
2022/10/26 09:59:40;;;;;;;4.30;1.58;;;18.50;99.90;;;;;;5028910;28;20206;-79
2022/10/26 10:02:44;;;;;;;4.95;1.77;;;18.60;99.90;;;;;;5034569;28;20214;-80
2022/10/26 10:05:42;;;;;;;5.93;1.60;;;18.70;99.90;;;;;;5047190;28;20203;-80
2022/10/26 10:08:14;;;;;;;3.97;1.45;;;18.60;99.90;;;;;;5030428;28;20214;-79
2022/10/26 10:11:03;;;;;;;4.45;2.10;;;18.50;99.90;;;;;;5027393;28;20199;-79
2022/10/26 10:13:32;;;;;;;2.55;1.63;;;18.40;99.90;;;;;;5029161;28;20204;-80
2022/10/26 10:16:06;;;;;;;4.53;1.70;;;18.40;99.90;;;;;;5047111;28;20199;-79
2022/10/26 10:18:37;;;;;;;6.82;1.67;;;18.30;99.90;;;;;;5030323;28;20214;-80
2022/10/26 10:21:05;;;;;;;2.35;1.40;;;18.40;99.90;;;;;;5036223;28;20215;-82
2022/10/26 10:23:34;;;;;;;2.35;1.77;;;18.40;99.90;;;;;;5019536;28;20200;-82
2022/10/26 10:26:07;;;;;;;6.40;2.00;;;18.50;99.90;;;;;;5019584;28;20207;-82
2022/10/26 10:28:35;;;;;;;5.47;2.15;;;18.60;99.90;;;;;;5030962;28;20210;-82
2022/10/26 10:31:04;;;;;;;3.17;2.08;;;18.70;99.90;;;;;;5025470;28;20214;-80
2022/10/26 10:33:35;;;;;;;3.25;1.75;;;18.80;99.90;;;;;;5027280;28;20211;-80
2022/10/26 10:36:06;;;;;;;6.65;1.88;;;18.80;99.90;;;;;;5044277;28;20200;-80
2022/10/26 10:38:39;;;;;;;4.93;1.73;;;18.90;99.90;;;;;;5023841;28;20207;-80
2022/10/26 10:41:26;;;;;;;8.00;1.98;;;19.10;99.90;;;;;;5025157;28;20227;-80
2022/10/26 10:43:57;;;;;;;5.05;2.20;;;19.10;99.90;;;;;;5046371;28;20679;-81
2022/10/26 10:46:26;;;;;;;4.00;2.42;;;19.20;99.90;;;;;;5022046;28;20216;-79
2022/10/26 10:49:02;;;;;;;4.22;1.63;;;19.40;99.90;;;;;;5026042;28;20199;-80
2022/10/26 10:51:36;;;;;;;4.88;2.10;;;19.30;99.90;;;;;;5029540;28;20203;-80
2022/10/26 10:54:05;;;;;;;3.72;2.03;;;19.50;99.90;;;;;;5043093;28;20211;-80
2022/10/26 10:56:41;;;;;;;6.75;2.17;;;19.70;99.90;;;;;;5021297;28;20692;-80
2022/10/26 10:59:30;;;;;;;4.38;1.95;;;19.60;99.90;;;;;;5046124;28;20199;-80
2022/10/26 11:02:18;;;;;;;4.07;2.05;;;19.90;99.90;;;;;;5017359;28;20224;-80
2022/10/26 11:05:03;;;;;;;4.43;1.90;;;20.00;99.90;;;;;;5026428;28;20206;-80
2022/10/26 11:07:35;;;;;;;5.05;2.13;;;20.20;99.90;;;;;;5027665;28;20680;-80
2022/10/26 11:10:04;;;;;;;5.28;2.38;;;20.40;99.90;;;;;;5047022;28;20199;-80
2022/10/26 11:12:36;;;;;;;2.58;1.88;;;20.30;99.90;;;;;;5028728;28;20214;-80
2022/10/26 11:15:08;;;;;;;6.45;2.75;;;20.40;99.90;;;;;;5026092;28;20191;-81
2022/10/26 11:17:43;;;;;;;4.75;2.03;;;20.70;99.90;;;;;;5027493;28;20242;-81
2022/10/26 11:20:18;;;;;;;4.35;2.13;;;20.60;99.90;;;;;;5029582;28;20206;-80
2022/10/26 11:23:00;;;;;;;3.50;2.00;;;20.60;99.90;;;;;;5031050;28;20191;-80
2022/10/26 11:25:30;;;;;;;4.60;2.38;;;20.50;99.90;;;;;;5024574;28;20202;-80
2022/10/26 11:28:02;;;;;;;5.57;1.70;;;20.50;99.90;;;;;;5031144;28;20222;-80
2022/10/26 11:30:33;;;;;;;5.72;2.17;;;20.90;99.90;;;;;;5029737;28;20194;-81
2022/10/26 11:33:10;;;;;;;6.05;2.15;;;20.80;99.90;;;;;;5031908;28;20203;-80
2022/10/26 11:35:45;;;;;;;6.00;2.67;;;20.80;99.90;;;;;;5028543;28;20257;-80
2022/10/26 11:38:17;;;;;;;3.78;2.20;;;21.00;99.90;;;;;;5042887;28;20207;-80
2022/10/26 11:40:53;;;;;;;5.45;2.47;;;20.70;99.90;;;;;;5027110;28;20213;-81
2022/10/26 11:43:29;;;;;;;6.03;3.03;;;20.90;99.90;;;;;;5033754;28;20206;-79
2022/10/26 11:46:04;;;;;;;4.90;2.83;;;21.40;99.90;;;;;;5027739;28;20203;-80
2022/10/26 11:48:37;;;;;;;4.05;2.33;;;21.00;99.90;;;;;;5030943;28;20202;-80
2022/10/26 11:51:15;;;;;;;5.25;2.00;;;21.00;99.90;;;;;;5033677;28;20191;-79
2022/10/26 11:53:45;;;;;;;2.67;2.00;;;21.00;99.90;;;;;;5030838;28;20198;-80
2022/10/26 11:56:19;;;;;;;4.53;2.05;;;20.80;99.90;;;;;;5035680;28;20233;-80
2022/10/26 11:58:46;;;;;;;3.40;2.00;;;21.00;99.90;;;;;;5033777;28;20563;-79
2022/10/26 12:01:17;;;;;;;4.45;2.40;;;21.40;99.90;;;;;;5038019;28;20228;-79
2022/10/26 12:03:49;;;;;;;7.28;2.08;;;21.50;99.90;;;;;;5030808;28;20198;-79
2022/10/26 12:06:22;;;;;;;4.05;1.90;;;21.30;99.90;;;;;;5039483;28;20228;-79
2022/10/26 12:08:56;;;;;;;5.55;1.98;;;21.10;99.90;;;;;;5026463;28;20649;-80
2022/10/26 12:11:36;;;;;;;5.18;2.20;;;21.30;99.90;;;;;;5026393;28;20199;-80
2022/10/26 12:14:17;;;;;;;3.75;1.80;;;21.40;99.90;;;;;;5027362;28;20653;-80
2022/10/26 12:16:54;;;;;;;5.30;2.15;;;21.60;99.90;;;;;;5032710;28;20237;-80
2022/10/26 12:19:28;;;;;;;2.03;1.70;;;21.60;99.90;;;;;;5028577;28;20208;-81
2022/10/26 12:21:58;;;;;;;5.97;2.00;;;21.50;99.90;;;;;;5049245;28;20230;-80
2022/10/26 12:24:32;;;;;;;5.38;1.92;;;21.30;99.90;;;;;;5035377;28;20194;-80
2022/10/26 12:27:01;;;;;;;5.45;2.05;;;21.50;99.90;;;;;;5031225;28;20215;-81
2022/10/26 12:29:34;;;;;;;5.90;1.90;;;21.30;99.90;;;;;;5039271;28;20200;-80
2022/10/26 12:32:02;;;;;;;7.63;2.47;;;21.60;99.90;;;;;;5038344;28;20198;-80
2022/10/26 12:34:58;;;;;;;4.60;2.00;;;21.40;99.90;;;;;;5039498;28;20214;-81
2022/10/26 12:37:35;;;;;;;3.50;1.85;;;21.60;99.90;;;;;;5016719;28;20223;-80
2022/10/26 12:40:36;;;;;;;4.53;2.15;;;21.70;99.90;;;;;;5039071;28;20207;-80
2022/10/26 12:43:33;;;;;;;5.22;2.30;;;21.70;99.90;;;;;;5015626;28;20219;-81
2022/10/26 12:46:40;;;;;;;4.53;2.10;;;21.70;99.90;;;;;;5035358;28;20594;-80
2022/10/26 12:49:46;;;;;;;4.55;2.03;;;21.60;99.90;;;;;;4988678;28;20206;-80
2022/10/26 12:52:49;;;;;;;5.70;2.03;;;21.70;99.90;;;;;;4974811;28;20684;-80
2022/10/26 12:55:58;;;;;;;4.32;2.58;;;21.80;99.90;;;;;;5039972;28;20202;-80
2022/10/26 12:58:56;;;;;;;3.47;1.55;;;21.80;99.90;;;;;;5037057;28;20794;-81
2022/10/26 13:01:36;;;;;;;3.10;1.95;;;21.80;99.90;;;;;;5036112;28;20215;-80
2022/10/26 13:04:23;;;;;;;5.05;2.10;;;21.60;99.90;;;;;;5032138;28;20199;-81
2022/10/26 13:07:13;;;;;;;3.75;1.52;;;21.60;99.90;;;;;;5036300;28;20238;-81
2022/10/26 13:09:46;;;;;;;4.03;1.30;;;21.60;99.90;;;;;;5036764;28;20206;-80
2022/10/26 13:12:14;;;;;;;4.28;1.98;;;21.60;99.90;;;;;;5026521;28;20199;-81
2022/10/26 13:14:57;;;;;;;2.50;1.60;;;21.60;99.90;;;;;;5042753;28;20210;-80
2022/10/26 13:17:27;;;;;;;2.75;1.60;;;21.60;99.90;;;;;;5037316;28;20218;-80
2022/10/26 13:20:00;;;;;;;1.23;0.90;;;21.30;99.90;;;;;;5037550;28;20236;-81